Terminal Aerodrome Forecast
Issued by NWS

Home | Current Version | Previous Version | Text Only | Print | Product List | Glossary On
Versions: 1 2 3 4 5 6 7 8 9 10 11 12 13 14 15 16 17 18 19 20 21 22 23 24 25
000
FTUS41 KBTV 171726
TAFSLK
TAF
KSLK 171726Z 1718/1818 23005KT 3SM BR VCSH SCT003 BKN009 OVC020
      TEMPO 1718/1722 1/2SM -SHRA FG OVC003
     FM180100 26006KT 4SM BR VCSH BKN012 OVC020
     FM180900 28006KT 2SM BR VCSH BKN020 OVC030=

USA.gov is the U.S. government's official web portal to all federal, state and local government web resources and services.